Time;durP1;ratioP1;P1;durP2;ratioP2;P2;SDS_P1;SDS_P2;PMS_P1;PMS_P2;Temp;Humidity;BMP_temperature;BMP_pressure;BME280_temperature;BME280_humidity;BME280_pressure;Samples;Min_cycle;Max_cycle;Signal;HPM_P1;HPM_P2
2023/01/05 00:01:31;;;;;;;5.57;1.17;;;;;;;;;;5036290;28;20545;-73
2023/01/05 00:04:01;;;;;;;2.40;0.97;;;;;;;;;;5036932;28;20464;-74
2023/01/05 00:06:29;;;;;;;4.13;1.80;;;;;;;;;;5036175;28;20929;-73
2023/01/05 00:08:57;;;;;;;8.53;1.40;;;;;;;;;;5037468;28;20834;-73
2023/01/05 00:22:31;;;;;;;5.03;1.50;;;;;;;;;;5036651;28;20445;-73
2023/01/05 00:24:58;;;;;;;5.17;1.57;;;;;;;;;;5036566;28;20451;-73
2023/01/05 00:27:28;;;;;;;9.33;2.27;;;;;;;;;;5036125;28;20462;-74
2023/01/05 00:29:56;;;;;;;6.57;1.50;;;;;;;;;;5036354;28;20454;-74
2023/01/05 00:32:24;;;;;;;9.90;1.60;;;;;;;;;;5036492;28;20708;-73
2023/01/05 00:34:55;;;;;;;9.13;2.37;;;;;;;;;;5036392;28;20780;-73
2023/01/05 00:37:23;;;;;;;6.63;1.70;;;;;;;;;;5036263;28;20500;-73
2023/01/05 00:39:51;;;;;;;7.60;1.70;;;;;;;;;;5035601;28;20458;-73
2023/01/05 00:42:19;;;;;;;8.77;1.80;;;;;;;;;;5036265;28;20459;-73
2023/01/05 00:44:48;;;;;;;7.97;1.73;;;;;;;;;;5036238;28;20773;-73
2023/01/05 00:47:16;;;;;;;15.03;1.37;;;;;;;;;;5036294;28;20455;-73
2023/01/05 00:49:43;;;;;;;6.27;1.43;;;;;;;;;;5036579;28;20462;-73
2023/01/05 00:52:11;;;;;;;3.87;1.50;;;;;;;;;;5036138;28;20466;-73
2023/01/05 00:54:39;;;;;;;6.87;1.40;;;;;;;;;;5036036;28;20485;-73
2023/01/05 00:57:07;;;;;;;4.37;1.10;;;;;;;;;;5035891;28;20497;-73
2023/01/05 00:59:34;;;;;;;5.43;1.20;;;;;;;;;;5035973;28;20536;-73
2023/01/05 01:02:04;;;;;;;8.43;1.73;;;;;;;;;;5035609;28;20458;-73
2023/01/05 01:04:32;;;;;;;11.13;1.90;;;;;;;;;;5035850;28;20532;-74
2023/01/05 01:07:00;;;;;;;4.33;1.60;;;;;;;;;;5035440;28;20458;-73
2023/01/05 01:09:27;;;;;;;6.33;1.60;;;;;;;;;;5034949;28;20494;-74
2023/01/05 01:11:55;;;;;;;4.10;1.20;;;;;;;;;;5035603;28;20843;-73
2023/01/05 01:14:23;;;;;;;7.30;1.20;;;;;;;;;;5036076;28;20454;-73
2023/01/05 01:16:51;;;;;;;4.27;0.97;;;;;;;;;;5035474;28;20923;-73
2023/01/05 01:19:21;;;;;;;7.30;1.30;;;;;;;;;;5036036;28;20458;-73
2023/01/05 01:21:49;;;;;;;6.40;1.80;;;;;;;;;;5035759;28;20458;-73
2023/01/05 01:24:18;;;;;;;3.70;1.10;;;;;;;;;;5035255;28;20461;-73
2023/01/05 01:26:45;;;;;;;5.13;1.33;;;;;;;;;;5035641;28;20566;-73
2023/01/05 01:29:16;;;;;;;5.13;1.77;;;;;;;;;;5035766;28;20443;-73
2023/01/05 01:31:43;;;;;;;3.37;1.50;;;;;;;;;;5035106;28;20462;-74
2023/01/05 01:34:11;;;;;;;4.17;1.30;;;;;;;;;;5035492;28;20455;-73
2023/01/05 01:36:40;;;;;;;4.57;1.13;;;;;;;;;;5036334;28;20929;-73
2023/01/05 01:39:08;;;;;;;21.33;1.97;;;;;;;;;;5035231;28;20454;-73
2023/01/05 01:41:36;;;;;;;2.77;1.00;;;;;;;;;;5034979;28;20450;-74
2023/01/05 01:44:04;;;;;;;4.57;0.87;;;;;;;;;;5035385;28;20721;-74
2023/01/05 01:46:31;;;;;;;3.23;0.80;;;;;;;;;;5034961;28;20462;-73
2023/01/05 01:49:01;;;;;;;4.13;1.10;;;;;;;;;;5035618;28;20450;-74
2023/01/05 01:51:31;;;;;;;5.10;1.10;;;;;;;;;;5035673;28;20462;-73
2023/01/05 01:54:00;;;;;;;5.80;1.10;;;;;;;;;;5035987;28;21105;-72
2023/01/05 01:56:31;;;;;;;9.40;0.93;;;;;;;;;;5035293;28;20731;-73
2023/01/05 01:58:58;;;;;;;4.07;0.90;;;;;;;;;;5035552;28;20458;-72
2023/01/05 02:01:26;;;;;;;3.87;1.30;;;;;;;;;;5035494;28;20450;-73
2023/01/05 02:03:54;;;;;;;3.40;0.97;;;;;;;;;;5035176;28;20870;-73
2023/01/05 02:06:22;;;;;;;10.70;1.47;;;;;;;;;;5035073;28;20465;-74
2023/01/05 02:08:50;;;;;;;4.77;1.30;;;;;;;;;;5034293;28;20442;-74
2023/01/05 02:11:31;;;;;;;2.10;0.80;;;;;;;;;;5034727;28;20453;-74
2023/01/05 02:14:09;;;;;;;3.83;0.70;;;;;;;;;;5035050;28;20450;-74
2023/01/05 02:16:41;;;;;;;6.13;1.40;;;;;;;;;;5034928;28;20492;-73
2023/01/05 02:19:27;;;;;;;4.27;1.60;;;;;;;;;;5036673;28;20435;-74
2023/01/05 02:22:01;;;;;;;3.90;1.20;;;;;;;;;;5038842;28;20552;-73
2023/01/05 02:24:41;;;;;;;8.00;1.20;;;;;;;;;;5038602;28;20454;-74
2023/01/05 02:27:26;;;;;;;2.57;1.07;;;;;;;;;;5038641;28;20537;-75
2023/01/05 02:30:27;;;;;;;3.10;0.60;;;;;;;;;;5038644;28;20537;-75
2023/01/05 02:32:58;;;;;;;2.60;0.70;;;;;;;;;;5038559;28;20545;-75
2023/01/05 02:35:31;;;;;;;1.40;0.50;;;;;;;;;;5038821;28;20478;-75
2023/01/05 02:38:02;;;;;;;3.10;0.70;;;;;;;;;;5038431;28;20486;-74
2023/01/05 02:40:32;;;;;;;4.90;0.83;;;;;;;;;;5038946;28;20460;-75
2023/01/05 02:43:01;;;;;;;4.47;1.10;;;;;;;;;;5038470;28;20489;-74
2023/01/05 02:45:28;;;;;;;2.80;0.97;;;;;;;;;;5038860;28;20526;-74
2023/01/05 02:47:57;;;;;;;4.63;1.30;;;;;;;;;;5038479;28;20450;-74
2023/01/05 02:50:28;;;;;;;2.07;0.70;;;;;;;;;;5037992;28;20485;-74
2023/01/05 02:52:58;;;;;;;3.43;0.60;;;;;;;;;;5038326;28;20460;-74
2023/01/05 02:55:29;;;;;;;3.63;1.23;;;;;;;;;;5037160;28;20469;-73
2023/01/05 02:57:59;;;;;;;2.60;0.60;;;;;;;;;;5038381;28;20578;-74
2023/01/05 03:00:28;;;;;;;2.83;1.00;;;;;;;;;;5038198;28;20450;-73
2023/01/05 03:03:00;;;;;;;2.90;0.97;;;;;;;;;;5038188;28;20458;-74
2023/01/05 03:05:30;;;;;;;3.10;1.20;;;;;;;;;;5037401;28;20549;-73
2023/01/05 03:08:05;;;;;;;4.00;0.90;;;;;;;;;;5037688;28;20455;-73
2023/01/05 03:16:07;;;;;;;3.20;1.00;;;;;;;;;;5037246;28;20422;-73
2023/01/05 03:19:34;;;;;;;1.83;0.50;;;;;;;;;;5037205;28;20486;-73
2023/01/05 03:35:33;;;;;;;1.87;0.50;;;;;;;;;;5037032;28;20437;-73
2023/01/05 03:38:04;;;;;;;3.00;0.50;;;;;;;;;;5037858;28;20525;-74
2023/01/05 03:40:32;;;;;;;2.70;0.70;;;;;;;;;;5038116;28;20476;-73
2023/01/05 03:43:01;;;;;;;2.30;0.60;;;;;;;;;;5037120;28;20602;-73
2023/01/05 03:45:35;;;;;;;2.90;0.80;;;;;;;;;;5036727;28;20438;-73
2023/01/05 03:48:02;;;;;;;2.07;0.70;;;;;;;;;;5037714;28;20600;-73
2023/01/05 03:50:32;;;;;;;1.60;0.80;;;;;;;;;;5036996;28;20548;-73
2023/01/05 03:52:59;;;;;;;2.50;0.50;;;;;;;;;;5036504;28;20454;-73
2023/01/05 03:55:27;;;;;;;2.43;0.57;;;;;;;;;;5036685;28;20442;-72
2023/01/05 03:57:54;;;;;;;2.23;0.73;;;;;;;;;;5036808;28;20478;-72
2023/01/05 04:00:23;;;;;;;3.10;1.00;;;;;;;;;;5037241;28;20446;-73
2023/01/05 04:02:51;;;;;;;1.60;0.57;;;;;;;;;;5037010;28;20553;-72
2023/01/05 04:05:19;;;;;;;2.60;0.80;;;;;;;;;;5036522;28;20636;-73
2023/01/05 04:07:48;;;;;;;3.57;0.70;;;;;;;;;;5036596;28;20454;-73
2023/01/05 04:10:16;;;;;;;2.90;0.60;;;;;;;;;;5037026;28;20455;-72
2023/01/05 04:12:45;;;;;;;2.77;0.50;;;;;;;;;;5036651;28;20943;-73
2023/01/05 04:15:12;;;;;;;1.83;0.50;;;;;;;;;;5036563;28;20450;-72
2023/01/05 04:17:42;;;;;;;1.83;0.60;;;;;;;;;;5035837;28;20510;-73
2023/01/05 04:20:10;;;;;;;1.40;0.60;;;;;;;;;;5036406;28;20450;-72
2023/01/05 04:22:38;;;;;;;1.50;0.60;;;;;;;;;;5036721;28;20462;-73
2023/01/05 04:25:07;;;;;;;1.60;0.60;;;;;;;;;;5036691;28;20505;-73
2023/01/05 04:27:36;;;;;;;1.27;0.50;;;;;;;;;;5036252;28;20782;-72
2023/01/05 04:30:04;;;;;;;2.73;0.63;;;;;;;;;;5036262;28;20458;-73
2023/01/05 04:32:32;;;;;;;1.43;0.50;;;;;;;;;;5036224;28;20462;-72
2023/01/05 04:35:00;;;;;;;1.43;0.60;;;;;;;;;;5036282;28;20450;-73
2023/01/05 04:37:27;;;;;;;1.30;0.50;;;;;;;;;;5035627;28;20470;-73
2023/01/05 04:39:55;;;;;;;1.40;0.50;;;;;;;;;;5035680;28;20454;-72
2023/01/05 04:42:24;;;;;;;1.20;0.50;;;;;;;;;;5034601;28;20729;-72
2023/01/05 04:44:52;;;;;;;2.30;0.60;;;;;;;;;;5036426;28;20532;-72
2023/01/05 04:47:19;;;;;;;1.30;0.50;;;;;;;;;;5035522;28;20450;-72
2023/01/05 04:49:47;;;;;;;1.10;0.40;;;;;;;;;;5036017;28;20454;-72
2023/01/05 04:52:14;;;;;;;10.53;1.20;;;;;;;;;;5036318;28;20450;-72
2023/01/05 04:54:42;;;;;;;1.73;0.60;;;;;;;;;;5034944;28;20462;-72
2023/01/05 04:57:12;;;;;;;3.73;1.33;;;;;;;;;;5035445;28;20443;-72
2023/01/05 04:59:41;;;;;;;1.50;0.50;;;;;;;;;;5035895;28;20556;-72
2023/01/05 05:02:09;;;;;;;1.50;0.70;;;;;;;;;;5036339;28;20724;-72
2023/01/05 05:04:37;;;;;;;1.10;0.40;;;;;;;;;;5035276;28;20469;-72
2023/01/05 05:07:05;;;;;;;1.40;0.77;;;;;;;;;;5035596;28;20462;-72
2023/01/05 05:09:32;;;;;;;1.33;0.50;;;;;;;;;;5035855;28;20454;-71
2023/01/05 05:12:00;;;;;;;1.40;0.50;;;;;;;;;;5035684;28;20451;-72
2023/01/05 05:14:28;;;;;;;2.27;0.70;;;;;;;;;;5035710;28;20913;-71
2023/01/05 05:16:57;;;;;;;1.40;0.50;;;;;;;;;;5035864;28;20451;-71
2023/01/05 05:19:24;;;;;;;1.80;0.50;;;;;;;;;;5035744;28;20520;-71
2023/01/05 05:21:52;;;;;;;1.30;0.50;;;;;;;;;;5035606;28;20457;-72
2023/01/05 05:24:20;;;;;;;1.30;0.50;;;;;;;;;;5036013;28;20875;-72
2023/01/05 05:26:47;;;;;;;1.40;0.40;;;;;;;;;;5035586;28;20748;-72
2023/01/05 05:29:15;;;;;;;1.13;0.40;;;;;;;;;;5035630;28;20458;-73
2023/01/05 05:31:43;;;;;;;1.10;0.40;;;;;;;;;;5035228;28;20758;-73
2023/01/05 05:34:13;;;;;;;1.60;0.50;;;;;;;;;;5035090;28;20469;-73
2023/01/05 05:36:40;;;;;;;1.23;0.43;;;;;;;;;;5035685;28;20667;-73
2023/01/05 05:39:11;;;;;;;1.20;0.50;;;;;;;;;;5035133;28;20489;-73
2023/01/05 05:41:39;;;;;;;2.50;0.50;;;;;;;;;;5035090;28;20446;-73
2023/01/05 05:44:06;;;;;;;1.13;0.47;;;;;;;;;;5035122;28;20454;-73
2023/01/05 05:46:34;;;;;;;1.10;0.40;;;;;;;;;;5034771;28;20465;-74
2023/01/05 05:49:03;;;;;;;2.77;1.40;;;;;;;;;;5035217;28;20465;-73
2023/01/05 05:51:32;;;;;;;1.40;0.50;;;;;;;;;;5034857;28;20929;-74
2023/01/05 05:54:00;;;;;;;1.20;0.53;;;;;;;;;;5038137;28;20465;-73
2023/01/05 05:56:28;;;;;;;3.13;0.57;;;;;;;;;;5038278;28;20450;-74
2023/01/05 05:58:55;;;;;;;1.43;0.50;;;;;;;;;;5039222;28;20486;-74
2023/01/05 06:01:23;;;;;;;1.47;0.50;;;;;;;;;;5039350;28;20460;-74
2023/01/05 06:03:51;;;;;;;3.27;0.70;;;;;;;;;;5039076;28;20863;-73
2023/01/05 06:06:18;;;;;;;1.80;0.50;;;;;;;;;;5039298;28;20450;-72
2023/01/05 06:08:48;;;;;;;4.93;0.60;;;;;;;;;;5038953;28;20476;-72
2023/01/05 06:11:15;;;;;;;1.30;0.50;;;;;;;;;;5038054;28;20786;-72
2023/01/05 06:13:43;;;;;;;4.03;0.70;;;;;;;;;;5038082;28;20454;-73
2023/01/05 06:16:11;;;;;;;3.13;0.70;;;;;;;;;;5038450;28;20540;-72
2023/01/05 06:18:39;;;;;;;4.20;0.60;;;;;;;;;;5038441;28;20544;-73
2023/01/05 06:21:07;;;;;;;1.63;0.50;;;;;;;;;;5038251;28;20474;-73
2023/01/05 06:23:36;;;;;;;3.57;0.60;;;;;;;;;;5042576;28;20885;-73
2023/01/05 06:26:06;;;;;;;1.47;0.50;;;;;;;;;;5057711;28;20503;-73
2023/01/05 06:28:36;;;;;;;5.20;0.60;;;;;;;;;;5058583;28;20842;-73
2023/01/05 06:31:08;;;;;;;1.50;0.80;;;;;;;;;;5059077;28;20460;-73
2023/01/05 06:33:36;;;;;;;1.50;0.57;;;;;;;;;;5058858;28;20540;-73
2023/01/05 06:36:03;;;;;;;1.40;0.63;;;;;;;;;;5059121;28;20563;-73
2023/01/05 06:38:31;;;;;;;2.00;0.70;;;;;;;;;;5058302;28;20512;-73
2023/01/05 06:40:59;;;;;;;1.20;0.50;;;;;;;;;;5058680;28;20545;-73
2023/01/05 06:43:28;;;;;;;2.03;0.60;;;;;;;;;;5057919;28;20483;-74
2023/01/05 06:45:56;;;;;;;2.97;0.77;;;;;;;;;;5056954;28;20448;-71
2023/01/05 06:48:27;;;;;;;1.83;0.53;;;;;;;;;;5056736;28;20461;-74
2023/01/05 06:50:54;;;;;;;3.60;1.30;;;;;;;;;;5055402;28;20750;-74
2023/01/05 06:53:22;;;;;;;2.00;0.80;;;;;;;;;;5055825;28;20553;-73
2023/01/05 06:55:49;;;;;;;2.87;1.60;;;;;;;;;;5056768;28;20457;-73
2023/01/05 06:58:19;;;;;;;1.20;0.50;;;;;;;;;;5056679;28;20457;-73
2023/01/05 07:00:48;;;;;;;18.57;2.13;;;;;;;;;;5056343;28;20529;-73
2023/01/05 07:03:18;;;;;;;1.30;0.63;;;;;;;;;;5052362;28;20462;-73
2023/01/05 07:05:47;;;;;;;2.73;0.60;;;;;;;;;;5044701;28;20465;-73
2023/01/05 07:08:15;;;;;;;5.43;0.90;;;;;;;;;;5055327;28;20454;-73
2023/01/05 07:10:43;;;;;;;3.20;0.80;;;;;;;;;;5056255;28;20461;-71
2023/01/05 07:13:11;;;;;;;2.53;0.60;;;;;;;;;;5056350;28;20446;-73
2023/01/05 07:15:39;;;;;;;2.33;0.90;;;;;;;;;;5056735;28;20464;-73
2023/01/05 07:18:10;;;;;;;5.10;1.07;;;;;;;;;;5055812;28;20456;-72
2023/01/05 07:20:38;;;;;;;4.93;1.00;;;;;;;;;;5047739;28;20481;-71
2023/01/05 07:23:09;;;;;;;2.13;0.90;;;;;;;;;;5049779;28;20906;-74
2023/01/05 07:25:39;;;;;;;3.33;0.80;;;;;;;;;;5053944;28;20445;-73
2023/01/05 07:28:11;;;;;;;2.23;0.80;;;;;;;;;;5046946;28;20473;-73
2023/01/05 07:30:44;;;;;;;8.90;0.83;;;;;;;;;;5054710;28;20538;-73
2023/01/05 07:33:17;;;;;;;2.90;1.07;;;;;;;;;;5048269;28;20681;-72
2023/01/05 07:35:45;;;;;;;4.37;0.67;;;;;;;;;;5040500;28;20462;-72
2023/01/05 07:38:17;;;;;;;4.23;1.00;;;;;;;;;;5036013;28;20457;-73
2023/01/05 07:40:46;;;;;;;8.17;1.53;;;;;;;;;;5036688;28;20961;-74
2023/01/05 07:43:15;;;;;;;5.13;0.70;;;;;;;;;;5035237;28;20472;-74
2023/01/05 07:45:43;;;;;;;2.03;0.73;;;;;;;;;;5035747;28;20477;-74
2023/01/05 07:48:11;;;;;;;5.80;1.80;;;;;;;;;;5034932;28;20889;-73
2023/01/05 07:50:40;;;;;;;3.23;1.43;;;;;;;;;;4988071;28;1370809;-74
2023/01/05 07:53:07;;;;;;;4.43;1.40;;;;;;;;;;5035766;28;20439;-72
2023/01/05 07:55:39;;;;;;;7.60;1.27;;;;;;;;;;5040216;28;20473;-73
2023/01/05 07:58:13;;;;;;;2.40;0.97;;;;;;;;;;5046324;28;20520;-73
2023/01/05 08:00:49;;;;;;;1.80;0.80;;;;;;;;;;5040522;28;20484;-73
2023/01/05 08:03:25;;;;;;;4.40;0.70;;;;;;;;;;5036008;28;20862;-74
2023/01/05 08:05:59;;;;;;;2.00;0.90;;;;;;;;;;5035714;28;20458;-73
2023/01/05 08:08:32;;;;;;;7.10;1.30;;;;;;;;;;5035652;28;20538;-72
2023/01/05 08:11:02;;;;;;;5.00;1.60;;;;;;;;;;5041104;28;20481;-72
2023/01/05 08:16:24;;;;;;;3.33;0.80;;;;;;;;;;5040029;28;20878;-72
2023/01/05 08:18:54;;;;;;;4.27;0.83;;;;;;;;;;5040978;28;20512;-72
2023/01/05 08:21:24;;;;;;;11.63;1.50;;;;;;;;;;5042922;28;20524;-71
2023/01/05 08:23:53;;;;;;;3.87;1.97;;;;;;;;;;5041118;28;20458;-73
2023/01/05 08:26:25;;;;;;;14.20;1.67;;;;;;;;;;5040400;28;20765;-73
2023/01/05 08:28:53;;;;;;;5.43;1.90;;;;;;;;;;5046417;28;20719;-72
2023/01/05 08:31:24;;;;;;;3.87;1.30;;;;;;;;;;5049322;28;20480;-71
2023/01/05 08:33:53;;;;;;;7.27;1.10;;;;;;;;;;5037389;28;20474;-72
2023/01/05 08:36:22;;;;;;;6.27;0.90;;;;;;;;;;5045905;28;20473;-73
2023/01/05 08:38:53;;;;;;;4.60;1.30;;;;;;;;;;5034052;28;20465;-71
2023/01/05 08:41:21;;;;;;;2.60;1.10;;;;;;;;;;5035015;28;20749;-72
2023/01/05 08:43:55;;;;;;;3.37;1.13;;;;;;;;;;5041806;28;20467;-71
2023/01/05 08:46:24;;;;;;;3.10;0.93;;;;;;;;;;5036703;28;20466;-72
2023/01/05 08:48:53;;;;;;;2.43;0.60;;;;;;;;;;5043386;28;20441;-71
2023/01/05 08:51:26;;;;;;;5.13;0.93;;;;;;;;;;5042726;28;20822;-74
2023/01/05 08:56:49;;;;;;;5.73;1.30;;;;;;;;;;5036673;28;21055;-72
2023/01/05 08:59:21;;;;;;;5.83;0.57;;;;;;;;;;5041315;28;20496;-72
2023/01/05 09:01:50;;;;;;;3.73;0.93;;;;;;;;;;5043795;28;20442;-74
2023/01/05 09:04:22;;;;;;;3.97;1.10;;;;;;;;;;5038766;28;20479;-73
2023/01/05 09:07:07;;;;;;;5.97;1.47;;;;;;;;;;5040243;28;20471;-72
2023/01/05 09:09:39;;;;;;;4.97;1.10;;;;;;;;;;5041523;28;21000;-72
2023/01/05 09:12:17;;;;;;;3.73;1.13;;;;;;;;;;5039934;28;20463;-72
2023/01/05 09:14:50;;;;;;;8.63;1.53;;;;;;;;;;5038461;28;20469;-72
2023/01/05 09:17:29;;;;;;;14.97;1.33;;;;;;;;;;5049341;28;20457;-72
2023/01/05 09:20:02;;;;;;;4.13;1.20;;;;;;;;;;5040957;28;20480;-72
2023/01/05 09:22:38;;;;;;;4.60;1.20;;;;;;;;;;5046382;28;20824;-72
2023/01/05 09:25:20;;;;;;;9.23;0.90;;;;;;;;;;5040529;28;20469;-72
2023/01/05 09:27:48;;;;;;;5.97;1.50;;;;;;;;;;5042964;28;20481;-73
2023/01/05 09:30:17;;;;;;;4.50;1.53;;;;;;;;;;5041392;28;20454;-73
2023/01/05 09:32:45;;;;;;;7.13;0.90;;;;;;;;;;5044295;28;20579;-73
2023/01/05 09:35:19;;;;;;;7.73;1.33;;;;;;;;;;5037097;28;20446;-73
2023/01/05 09:37:50;;;;;;;4.90;0.90;;;;;;;;;;5047227;28;20560;-73
2023/01/05 09:40:19;;;;;;;6.30;1.07;;;;;;;;;;5036668;28;20486;-73
2023/01/05 09:43:03;;;;;;;2.70;0.80;;;;;;;;;;5036589;28;20481;-73
2023/01/05 09:45:36;;;;;;;8.57;3.63;;;;;;;;;;5042046;28;20461;-73
2023/01/05 09:48:10;;;;;;;6.40;1.10;;;;;;;;;;5046553;28;20552;-74
2023/01/05 09:50:43;;;;;;;9.40;1.13;;;;;;;;;;5033834;28;20539;-74
2023/01/05 09:53:26;;;;;;;8.53;1.13;;;;;;;;;;5044857;28;20449;-71
2023/01/05 09:55:56;;;;;;;3.83;0.87;;;;;;;;;;5037919;28;20492;-73
2023/01/05 09:58:27;;;;;;;4.43;1.30;;;;;;;;;;5036097;28;20945;-72
2023/01/05 10:01:12;;;;;;;9.13;1.80;;;;;;;;;;5043009;28;20482;-73
2023/01/05 10:03:53;;;;;;;6.43;3.10;;;;;;;;;;5043457;28;20445;-72
2023/01/05 10:06:27;;;;;;;4.93;1.33;;;;;;;;;;5049165;28;20457;-72
2023/01/05 10:08:59;;;;;;;5.40;1.70;;;;;;;;;;5051417;28;20449;-73
2023/01/05 10:14:37;;;;;;;7.23;2.20;;;;;;;;;;5049132;28;20495;-72
2023/01/05 10:17:23;;;;;;;4.37;1.20;;;;;;;;;;5048536;28;20459;-71
2023/01/05 10:19:53;;;;;;;12.53;1.23;;;;;;;;;;5043421;28;20866;-73
2023/01/05 10:22:30;;;;;;;3.87;1.20;;;;;;;;;;5039087;28;20434;-72
2023/01/05 10:25:03;;;;;;;3.03;1.90;;;;;;;;;;5034780;28;20477;-72
2023/01/05 10:27:38;;;;;;;6.27;1.50;;;;;;;;;;5034296;28;20478;-71
2023/01/05 10:30:28;;;;;;;16.20;5.87;;;;;;;;;;5034255;28;20450;-72
2023/01/05 10:32:59;;;;;;;8.97;1.73;;;;;;;;;;5033763;28;20477;-72
2023/01/05 10:35:38;;;;;;;7.23;2.43;;;;;;;;;;5033727;28;20549;-72
2023/01/05 10:38:23;;;;;;;9.47;1.80;;;;;;;;;;5039700;28;20519;-73
2023/01/05 10:40:59;;;;;;;4.80;1.07;;;;;;;;;;5045724;28;20488;-73
2023/01/05 10:43:41;;;;;;;4.50;1.00;;;;;;;;;;5042293;28;20481;-72
2023/01/05 10:46:17;;;;;;;8.30;1.90;;;;;;;;;;5042645;28;20487;-72
2023/01/05 10:48:49;;;;;;;8.13;1.07;;;;;;;;;;5044216;28;20472;-73
2023/01/05 10:51:19;;;;;;;2.73;0.80;;;;;;;;;;5039055;28;20474;-71
2023/01/05 10:53:58;;;;;;;4.60;0.70;;;;;;;;;;5055367;28;20465;-71
2023/01/05 10:56:49;;;;;;;6.00;1.37;;;;;;;;;;5052009;28;20450;-72
2023/01/05 10:59:32;;;;;;;8.50;2.97;;;;;;;;;;5042074;28;20470;-72
2023/01/05 11:02:00;;;;;;;6.27;2.00;;;;;;;;;;5036854;28;20443;-73
2023/01/05 11:04:56;;;;;;;5.40;2.20;;;;;;;;;;5048320;28;20892;-72
2023/01/05 11:07:24;;;;;;;8.73;0.90;;;;;;;;;;5041626;28;20876;-72
2023/01/05 11:09:55;;;;;;;5.40;1.20;;;;;;;;;;5045814;28;21128;-72
2023/01/05 11:12:27;;;;;;;9.17;1.70;;;;;;;;;;5040348;28;20469;-72
2023/01/05 11:15:18;;;;;;;4.83;0.70;;;;;;;;;;5038839;28;20541;-71
2023/01/05 11:17:52;;;;;;;10.30;1.80;;;;;;;;;;5035565;28;21156;-72
2023/01/05 11:20:27;;;;;;;10.17;1.67;;;;;;;;;;5040973;28;20594;-72
2023/01/05 11:22:58;;;;;;;5.87;1.47;;;;;;;;;;5038515;28;20549;-72
2023/01/05 11:25:41;;;;;;;10.53;1.67;;;;;;;;;;5038979;28;20455;-71
2023/01/05 11:28:18;;;;;;;16.10;4.50;;;;;;;;;;5042596;28;20972;-71
2023/01/05 11:30:59;;;;;;;4.93;1.00;;;;;;;;;;5042369;28;20452;-71
2023/01/05 11:33:28;;;;;;;3.67;0.83;;;;;;;;;;5048646;28;20532;-74
2023/01/05 11:36:04;;;;;;;9.83;0.93;;;;;;;;;;5050848;28;20446;-73
2023/01/05 11:38:37;;;;;;;4.57;1.10;;;;;;;;;;5034828;28;20752;-73
2023/01/05 11:41:14;;;;;;;3.73;1.27;;;;;;;;;;5035206;28;20497;-73
2023/01/05 11:43:53;;;;;;;7.10;1.83;;;;;;;;;;5035662;28;20450;-72
2023/01/05 11:46:22;;;;;;;11.80;2.40;;;;;;;;;;5036131;28;20462;-73
2023/01/05 11:51:48;;;;;;;6.10;1.63;;;;;;;;;;5034092;28;20470;-73
2023/01/05 11:54:35;;;;;;;14.67;1.83;;;;;;;;;;5035545;28;20450;-72
2023/01/05 11:57:33;;;;;;;9.13;1.80;;;;;;;;;;5034453;28;20545;-72
2023/01/05 12:00:01;;;;;;;7.77;1.63;;;;;;;;;;5000914;28;21119;-72
2023/01/05 12:02:49;;;;;;;7.83;1.93;;;;;;;;;;5034849;28;20473;-74
2023/01/05 12:05:31;;;;;;;11.97;2.00;;;;;;;;;;5034243;28;20450;-73
2023/01/05 12:08:08;;;;;;;7.07;2.00;;;;;;;;;;5035470;28;20852;-73
2023/01/05 12:10:59;;;;;;;7.10;1.57;;;;;;;;;;5040758;28;20564;-73
2023/01/05 12:13:39;;;;;;;13.70;2.40;;;;;;;;;;5034974;28;20469;-72
2023/01/05 12:16:13;;;;;;;10.03;1.57;;;;;;;;;;5034386;28;20548;-72
2023/01/05 12:18:57;;;;;;;6.47;1.60;;;;;;;;;;5033754;28;20553;-72
2023/01/05 12:21:28;;;;;;;9.40;2.13;;;;;;;;;;5033678;28;20890;-72
2023/01/05 12:24:09;;;;;;;6.33;1.10;;;;;;;;;;5034340;28;20516;-72
2023/01/05 12:26:43;;;;;;;6.80;1.33;;;;;;;;;;5034349;28;20516;-72
2023/01/05 12:29:42;;;;;;;10.40;1.43;;;;;;;;;;5048163;28;20551;-72
2023/01/05 12:32:22;;;;;;;9.80;1.83;;;;;;;;;;5073742;28;20888;-73
2023/01/05 12:35:03;;;;;;;3.60;0.90;;;;;;;;;;5073211;28;20456;-72
2023/01/05 12:37:37;;;;;;;4.73;1.10;;;;;;;;;;5074154;28;20485;-73
2023/01/05 12:40:29;;;;;;;7.17;1.40;;;;;;;;;;5072978;28;20532;-71
2023/01/05 12:43:09;;;;;;;5.23;1.50;;;;;;;;;;5045334;28;20527;-73
2023/01/05 12:45:56;;;;;;;8.97;2.40;;;;;;;;;;5043869;28;20465;-73
2023/01/05 12:48:27;;;;;;;7.53;1.60;;;;;;;;;;5033543;28;20468;-72
2023/01/05 12:53:47;;;;;;;8.03;1.30;;;;;;;;;;5011541;28;21108;-72
2023/01/05 12:56:26;;;;;;;6.30;1.30;;;;;;;;;;5034220;28;20887;-72
2023/01/05 12:59:06;;;;;;;5.07;1.53;;;;;;;;;;5033077;28;20870;-72
2023/01/05 13:01:39;;;;;;;10.20;1.90;;;;;;;;;;5034282;28;20501;-73
2023/01/05 13:04:38;;;;;;;5.43;1.10;;;;;;;;;;5033854;28;20480;-73
2023/01/05 13:07:22;;;;;;;5.67;1.17;;;;;;;;;;5033026;28;20457;-72
2023/01/05 13:09:57;;;;;;;5.33;1.70;;;;;;;;;;5033282;28;20882;-73
2023/01/05 13:12:30;;;;;;;7.33;2.60;;;;;;;;;;5034771;28;20520;-73
2023/01/05 13:15:23;;;;;;;8.53;1.80;;;;;;;;;;5034328;28;20731;-72
2023/01/05 13:18:00;;;;;;;5.90;1.80;;;;;;;;;;5007602;28;20454;-73
2023/01/05 13:26:49;;;;;;;14.03;2.20;;;;;;;;;;5051918;28;20425;-72
2023/01/05 13:32:43;;;;;;;16.93;6.10;;;;;;;;;;5047364;28;20401;-72
2023/01/05 13:35:36;;;;;;;3.83;1.07;;;;;;;;;;5042127;28;20473;-72
2023/01/05 13:41:26;;;;;;;15.00;2.73;;;;;;;;;;5041685;28;20856;-73
2023/01/05 13:44:25;;;;;;;5.00;1.63;;;;;;;;;;5038603;28;20484;-73
2023/01/05 14:09:33;;;;;;;4.67;2.00;;;;;;;;;;5033676;28;20465;-72
2023/01/05 14:18:12;;;;;;;3.40;0.87;;;;;;;;;;5033848;28;20686;-73
2023/01/05 14:39:30;;;;;;;4.97;1.70;;;;;;;;;;5035876;28;20485;-74
2023/01/05 14:42:18;;;;;;;8.50;1.60;;;;;;;;;;5037185;28;20485;-73
2023/01/05 14:48:07;;;;;;;7.30;1.50;;;;;;;;;;5037131;28;20416;-74
2023/01/05 14:56:28;;;;;;;7.43;2.80;;;;;;;;;;5056354;28;20405;-74
2023/01/05 15:05:06;;;;;;;8.53;1.60;;;;;;;;;;5040554;28;20453;-73
2023/01/05 15:16:32;;;;;;;13.53;3.57;;;;;;;;;;5039057;28;20459;-73
2023/01/05 15:19:38;;;;;;;5.00;1.33;;;;;;;;;;5075672;28;20463;-73
2023/01/05 15:25:33;;;;;;;5.50;1.70;;;;;;;;;;5059194;28;20423;-73
2023/01/05 15:28:25;;;;;;;7.87;1.40;;;;;;;;;;5065395;28;20834;-73
2023/01/05 15:31:17;;;;;;;8.53;1.97;;;;;;;;;;5076628;28;20452;-73
2023/01/05 15:33:53;;;;;;;14.53;2.50;;;;;;;;;;5074378;28;20464;-73
2023/01/05 15:39:27;;;;;;;9.60;2.20;;;;;;;;;;5074537;28;21109;-73
2023/01/05 15:42:17;;;;;;;6.90;2.40;;;;;;;;;;5061860;28;20487;-72
2023/01/05 15:45:05;;;;;;;9.83;1.77;;;;;;;;;;5068987;28;20566;-73
2023/01/05 15:48:01;;;;;;;9.50;2.13;;;;;;;;;;5055683;28;20519;-74
2023/01/05 15:56:42;;;;;;;7.20;1.80;;;;;;;;;;4994153;28;20443;-73
2023/01/05 15:59:21;;;;;;;6.53;2.30;;;;;;;;;;4998416;28;20507;-73
2023/01/05 16:02:01;;;;;;;6.73;2.27;;;;;;;;;;5075837;28;20484;-74
2023/01/05 16:04:42;;;;;;;8.27;2.10;;;;;;;;;;5075238;28;20464;-74
2023/01/05 16:10:43;;;;;;;9.13;2.40;;;;;;;;;;5075390;28;20488;-73
2023/01/05 16:16:20;;;;;;;9.60;1.90;;;;;;;;;;5066833;28;20518;-73
2023/01/05 16:19:16;;;;;;;13.73;2.40;;;;;;;;;;5061243;28;20556;-73
2023/01/05 16:25:24;;;;;;;8.83;2.87;;;;;;;;;;5054579;28;20827;-73
2023/01/05 16:31:23;;;;;;;5.90;2.10;;;;;;;;;;5056225;28;20530;-74
2023/01/05 16:34:26;;;;;;;4.47;1.67;;;;;;;;;;5074313;28;20448;-74
2023/01/05 16:37:24;;;;;;;7.60;2.43;;;;;;;;;;4991376;28;20479;-73
2023/01/05 16:45:29;;;;;;;4.23;2.00;;;;;;;;;;5073207;28;20403;-73
2023/01/05 16:56:18;;;;;;;7.20;2.53;;;;;;;;;;5066110;28;20229;-73
2023/01/05 17:02:28;;;;;;;17.17;4.03;;;;;;;;;;5073842;28;20475;-73
2023/01/05 17:05:01;;;;;;;8.03;2.77;;;;;;;;;;5051752;28;20892;-73
2023/01/05 17:07:31;;;;;;;17.00;3.50;;;;;;;;;;5056540;28;21066;-73
2023/01/05 17:10:27;;;;;;;13.20;4.60;;;;;;;;;;5054139;28;21008;-73
2023/01/05 17:13:02;;;;;;;10.10;3.43;;;;;;;;;;5054173;28;20499;-73
2023/01/05 17:19:07;;;;;;;9.23;2.93;;;;;;;;;;5073238;28;20461;-74
2023/01/05 17:21:48;;;;;;;9.63;2.73;;;;;;;;;;5066868;28;20480;-74
2023/01/05 17:24:28;;;;;;;9.60;3.37;;;;;;;;;;5068423;28;20448;-74
2023/01/05 17:33:05;;;;;;;8.07;3.13;;;;;;;;;;5051014;28;20404;-73
2023/01/05 17:38:46;;;;;;;14.60;4.60;;;;;;;;;;5057958;28;20439;-73
2023/01/05 17:41:17;;;;;;;9.67;3.97;;;;;;;;;;5073959;28;20575;-74
2023/01/05 17:43:47;;;;;;;14.23;4.43;;;;;;;;;;5063488;28;20522;-73
2023/01/05 17:46:33;;;;;;;18.77;5.33;;;;;;;;;;5072043;28;20456;-73
2023/01/05 17:52:07;;;;;;;15.37;5.30;;;;;;;;;;5067374;28;20461;-73
2023/01/05 17:57:40;;;;;;;10.63;5.00;;;;;;;;;;5077700;28;20441;-73
2023/01/05 18:00:12;;;;;;;12.27;5.40;;;;;;;;;;5078136;28;20804;-73
2023/01/05 18:02:40;;;;;;;12.77;5.27;;;;;;;;;;5077097;28;20520;-73
2023/01/05 18:05:09;;;;;;;10.43;5.47;;;;;;;;;;5075899;28;20448;-73
2023/01/05 18:07:51;;;;;;;11.77;4.80;;;;;;;;;;5072756;28;20547;-74
2023/01/05 18:13:10;;;;;;;11.13;5.33;;;;;;;;;;5041759;28;20460;-73
2023/01/05 18:21:48;;;;;;;21.43;4.47;;;;;;;;;;5076911;28;20874;-74
2023/01/05 18:24:27;;;;;;;12.03;3.60;;;;;;;;;;5064396;28;20952;-74
2023/01/05 18:26:58;;;;;;;12.20;3.67;;;;;;;;;;5057709;28;20456;-73
2023/01/05 18:35:39;;;;;;;10.70;4.20;;;;;;;;;;5077325;28;20474;-73
2023/01/05 18:38:12;;;;;;;12.00;4.80;;;;;;;;;;5076169;28;20812;-76
2023/01/05 18:43:48;;;;;;;18.00;6.77;;;;;;;;;;5068086;28;20459;-73
2023/01/05 18:49:20;;;;;;;19.40;8.20;;;;;;;;;;5059963;28;20482;-74